sensor_id;sensor_type;location;lat;lon;timestamp;P1;durP1;ratioP1;P2;durP2;ratioP2
52798;SDS011;38667;42.872;74.622;2023-10-09T00:01:55;29.35;;;10.50;;
52798;SDS011;38667;42.872;74.622;2023-10-09T00:04:22;39.53;;;11.10;;
52798;SDS011;38667;42.872;74.622;2023-10-09T00:06:48;32.58;;;10.73;;
52798;SDS011;38667;42.872;74.622;2023-10-09T00:09:14;26.90;;;9.63;;
52798;SDS011;38667;42.872;74.622;2023-10-09T00:11:42;33.20;;;11.40;;
52798;SDS011;38667;42.872;74.622;2023-10-09T00:14:08;28.40;;;10.93;;
52798;SDS011;38667;42.872;74.622;2023-10-09T00:16:35;30.85;;;10.50;;
52798;SDS011;38667;42.872;74.622;2023-10-09T00:19:01;31.23;;;10.77;;
52798;SDS011;38667;42.872;74.622;2023-10-09T00:21:28;34.63;;;10.82;;
52798;SDS011;38667;42.872;74.622;2023-10-09T00:23:54;54.30;;;11.88;;
52798;SDS011;38667;42.872;74.622;2023-10-09T00:26:20;68.00;;;11.95;;
52798;SDS011;38667;42.872;74.622;2023-10-09T00:28:48;78.35;;;13.07;;
52798;SDS011;38667;42.872;74.622;2023-10-09T00:31:14;63.45;;;12.98;;
52798;SDS011;38667;42.872;74.622;2023-10-09T00:33:41;49.83;;;10.85;;
52798;SDS011;38667;42.872;74.622;2023-10-09T00:36:07;27.90;;;9.77;;
52798;SDS011;38667;42.872;74.622;2023-10-09T00:38:34;23.13;;;10.80;;
52798;SDS011;38667;42.872;74.622;2023-10-09T00:41:00;25.33;;;8.02;;
52798;SDS011;38667;42.872;74.622;2023-10-09T00:43:27;21.33;;;7.20;;
52798;SDS011;38667;42.872;74.622;2023-10-09T00:45:54;28.83;;;7.00;;
52798;SDS011;38667;42.872;74.622;2023-10-09T00:48:23;22.40;;;6.97;;
52798;SDS011;38667;42.872;74.622;2023-10-09T00:50:49;21.52;;;6.53;;
52798;SDS011;38667;42.872;74.622;2023-10-09T00:53:15;20.50;;;6.75;;
52798;SDS011;38667;42.872;74.622;2023-10-09T00:55:42;19.00;;;6.65;;
52798;SDS011;38667;42.872;74.622;2023-10-09T00:58:08;17.63;;;6.65;;
52798;SDS011;38667;42.872;74.622;2023-10-09T01:00:36;19.98;;;6.00;;
52798;SDS011;38667;42.872;74.622;2023-10-09T01:03:05;18.80;;;6.45;;
52798;SDS011;38667;42.872;74.622;2023-10-09T01:05:31;17.33;;;5.63;;
52798;SDS011;38667;42.872;74.622;2023-10-09T01:07:57;17.02;;;6.00;;
52798;SDS011;38667;42.872;74.622;2023-10-09T01:10:24;18.83;;;6.38;;
52798;SDS011;38667;42.872;74.622;2023-10-09T01:12:50;22.52;;;7.60;;
52798;SDS011;38667;42.872;74.622;2023-10-09T01:15:16;23.70;;;7.22;;
52798;SDS011;38667;42.872;74.622;2023-10-09T01:17:42;20.80;;;6.25;;
52798;SDS011;38667;42.872;74.622;2023-10-09T01:20:11;21.38;;;7.32;;
52798;SDS011;38667;42.872;74.622;2023-10-09T01:22:37;23.15;;;6.80;;
52798;SDS011;38667;42.872;74.622;2023-10-09T01:25:05;18.80;;;6.45;;
52798;SDS011;38667;42.872;74.622;2023-10-09T01:27:32;22.48;;;6.57;;
52798;SDS011;38667;42.872;74.622;2023-10-09T01:29:58;22.52;;;7.22;;
52798;SDS011;38667;42.872;74.622;2023-10-09T01:32:25;19.58;;;9.02;;
52798;SDS011;38667;42.872;74.622;2023-10-09T01:34:51;23.13;;;8.27;;
52798;SDS011;38667;42.872;74.622;2023-10-09T01:37:18;20.60;;;7.00;;
52798;SDS011;38667;42.872;74.622;2023-10-09T01:39:45;22.08;;;6.07;;
52798;SDS011;38667;42.872;74.622;2023-10-09T01:42:13;25.10;;;6.03;;
52798;SDS011;38667;42.872;74.622;2023-10-09T01:44:39;22.13;;;5.78;;
52798;SDS011;38667;42.872;74.622;2023-10-09T01:47:05;29.63;;;10.60;;
52798;SDS011;38667;42.872;74.622;2023-10-09T01:49:32;28.05;;;8.98;;
52798;SDS011;38667;42.872;74.622;2023-10-09T01:51:58;27.73;;;8.43;;
52798;SDS011;38667;42.872;74.622;2023-10-09T01:54:25;32.53;;;8.55;;
52798;SDS011;38667;42.872;74.622;2023-10-09T01:56:52;57.92;;;13.52;;
52798;SDS011;38667;42.872;74.622;2023-10-09T01:59:20;44.95;;;13.75;;
52798;SDS011;38667;42.872;74.622;2023-10-09T02:04:49;56.50;;;15.52;;
52798;SDS011;38667;42.872;74.622;2023-10-09T02:07:39;44.10;;;14.27;;
52798;SDS011;38667;42.872;74.622;2023-10-09T02:10:06;42.35;;;15.13;;
52798;SDS011;38667;42.872;74.622;2023-10-09T02:12:33;34.92;;;15.57;;
52798;SDS011;38667;42.872;74.622;2023-10-09T02:14:59;45.97;;;16.13;;
52798;SDS011;38667;42.872;74.622;2023-10-09T02:17:26;43.45;;;15.20;;
52798;SDS011;38667;42.872;74.622;2023-10-09T02:19:52;55.35;;;15.98;;
52798;SDS011;38667;42.872;74.622;2023-10-09T02:22:18;50.30;;;14.75;;
52798;SDS011;38667;42.872;74.622;2023-10-09T02:24:46;51.72;;;15.00;;
52798;SDS011;38667;42.872;74.622;2023-10-09T02:27:12;56.72;;;15.07;;
52798;SDS011;38667;42.872;74.622;2023-10-09T02:29:39;52.30;;;15.60;;
52798;SDS011;38667;42.872;74.622;2023-10-09T02:32:05;40.53;;;14.60;;
52798;SDS011;38667;42.872;74.622;2023-10-09T02:34:31;51.08;;;15.85;;
52798;SDS011;38667;42.872;74.622;2023-10-09T02:36:58;45.08;;;14.80;;
52798;SDS011;38667;42.872;74.622;2023-10-09T02:39:24;49.33;;;14.77;;
52798;SDS011;38667;42.872;74.622;2023-10-09T02:41:52;52.55;;;16.02;;
52798;SDS011;38667;42.872;74.622;2023-10-09T02:44:18;52.28;;;17.30;;
52798;SDS011;38667;42.872;74.622;2023-10-09T02:46:45;39.78;;;15.63;;
52798;SDS011;38667;42.872;74.622;2023-10-09T02:49:11;48.92;;;16.02;;
52798;SDS011;38667;42.872;74.622;2023-10-09T02:51:37;39.88;;;16.25;;
52798;SDS011;38667;42.872;74.622;2023-10-09T02:54:04;44.88;;;15.18;;
52798;SDS011;38667;42.872;74.622;2023-10-09T02:56:30;49.92;;;16.38;;
52798;SDS011;38667;42.872;74.622;2023-10-09T02:58:58;52.45;;;18.10;;
52798;SDS011;38667;42.872;74.622;2023-10-09T03:01:24;52.13;;;23.23;;
52798;SDS011;38667;42.872;74.622;2023-10-09T03:03:50;64.45;;;28.33;;
52798;SDS011;38667;42.872;74.622;2023-10-09T03:06:17;51.70;;;18.50;;
52798;SDS011;38667;42.872;74.622;2023-10-09T03:08:43;46.95;;;18.98;;
52798;SDS011;38667;42.872;74.622;2023-10-09T03:11:10;47.95;;;18.70;;
52798;SDS011;38667;42.872;74.622;2023-10-09T03:13:36;44.22;;;18.17;;
52798;SDS011;38667;42.872;74.622;2023-10-09T03:16:04;48.35;;;18.10;;
52798;SDS011;38667;42.872;74.622;2023-10-09T03:18:30;56.65;;;17.58;;
52798;SDS011;38667;42.872;74.622;2023-10-09T03:20:56;52.47;;;15.82;;
52798;SDS011;38667;42.872;74.622;2023-10-09T03:23:23;50.85;;;14.90;;
52798;SDS011;38667;42.872;74.622;2023-10-09T03:25:49;39.88;;;14.05;;
52798;SDS011;38667;42.872;74.622;2023-10-09T03:28:15;48.05;;;14.10;;
52798;SDS011;38667;42.872;74.622;2023-10-09T03:30:42;44.65;;;14.15;;
52798;SDS011;38667;42.872;74.622;2023-10-09T03:33:10;32.90;;;13.65;;
52798;SDS011;38667;42.872;74.622;2023-10-09T03:35:36;40.53;;;13.70;;
52798;SDS011;38667;42.872;74.622;2023-10-09T03:38:02;35.72;;;13.23;;
52798;SDS011;38667;42.872;74.622;2023-10-09T03:40:29;36.70;;;12.80;;
52798;SDS011;38667;42.872;74.622;2023-10-09T03:42:55;42.33;;;12.50;;
52798;SDS011;38667;42.872;74.622;2023-10-09T03:45:21;30.83;;;12.30;;
52798;SDS011;38667;42.872;74.622;2023-10-09T03:47:48;32.38;;;10.57;;
52798;SDS011;38667;42.872;74.622;2023-10-09T03:50:15;30.90;;;10.68;;
52798;SDS011;38667;42.872;74.622;2023-10-09T03:52:42;31.52;;;10.60;;
52798;SDS011;38667;42.872;74.622;2023-10-09T03:55:08;24.77;;;10.10;;
52798;SDS011;38667;42.872;74.622;2023-10-09T03:57:34;31.67;;;9.50;;
52798;SDS011;38667;42.872;74.622;2023-10-09T04:00:01;26.27;;;8.75;;
52798;SDS011;38667;42.872;74.622;2023-10-09T04:02:27;31.02;;;10.45;;
52798;SDS011;38667;42.872;74.622;2023-10-09T04:04:53;21.95;;;8.95;;
52798;SDS011;38667;42.872;74.622;2023-10-09T04:07:21;30.35;;;8.95;;
52798;SDS011;38667;42.872;74.622;2023-10-09T04:09:47;25.85;;;8.73;;
52798;SDS011;38667;42.872;74.622;2023-10-09T04:12:14;20.80;;;7.43;;
52798;SDS011;38667;42.872;74.622;2023-10-09T04:14:40;20.63;;;7.80;;
52798;SDS011;38667;42.872;74.622;2023-10-09T04:17:07;22.90;;;8.27;;
52798;SDS011;38667;42.872;74.622;2023-10-09T04:19:33;19.02;;;6.45;;
52798;SDS011;38667;42.872;74.622;2023-10-09T04:21:59;23.58;;;7.95;;
52798;SDS011;38667;42.872;74.622;2023-10-09T04:24:27;25.05;;;7.03;;
52798;SDS011;38667;42.872;74.622;2023-10-09T04:26:53;28.88;;;7.85;;
52798;SDS011;38667;42.872;74.622;2023-10-09T04:29:20;34.05;;;8.25;;
52798;SDS011;38667;42.872;74.622;2023-10-09T04:31:46;21.80;;;6.45;;
52798;SDS011;38667;42.872;74.622;2023-10-09T04:34:12;18.73;;;6.70;;
52798;SDS011;38667;42.872;74.622;2023-10-09T04:36:39;21.60;;;5.90;;
52798;SDS011;38667;42.872;74.622;2023-10-09T04:39:05;21.58;;;6.82;;
52798;SDS011;38667;42.872;74.622;2023-10-09T04:41:33;17.58;;;5.95;;
52798;SDS011;38667;42.872;74.622;2023-10-09T04:43:59;22.15;;;6.20;;
52798;SDS011;38667;42.872;74.622;2023-10-09T04:46:26;17.20;;;5.60;;
52798;SDS011;38667;42.872;74.622;2023-10-09T04:48:52;19.63;;;6.50;;
52798;SDS011;38667;42.872;74.622;2023-10-09T04:51:18;18.25;;;6.25;;
52798;SDS011;38667;42.872;74.622;2023-10-09T04:53:44;26.00;;;8.30;;
52798;SDS011;38667;42.872;74.622;2023-10-09T04:56:11;24.50;;;7.35;;
52798;SDS011;38667;42.872;74.622;2023-10-09T04:58:39;29.92;;;8.27;;
52798;SDS011;38667;42.872;74.622;2023-10-09T05:01:05;34.75;;;7.68;;
52798;SDS011;38667;42.872;74.622;2023-10-09T05:03:31;36.78;;;9.07;;
52798;SDS011;38667;42.872;74.622;2023-10-09T05:05:57;25.05;;;7.47;;
52798;SDS011;38667;42.872;74.622;2023-10-09T05:08:24;31.67;;;8.13;;
52798;SDS011;38667;42.872;74.622;2023-10-09T05:10:52;27.63;;;8.07;;
52798;SDS011;38667;42.872;74.622;2023-10-09T05:13:19;24.45;;;7.38;;
52798;SDS011;38667;42.872;74.622;2023-10-09T05:15:47;27.92;;;7.60;;
52798;SDS011;38667;42.872;74.622;2023-10-09T05:18:14;24.20;;;8.18;;
52798;SDS011;38667;42.872;74.622;2023-10-09T05:20:40;39.92;;;12.65;;
52798;SDS011;38667;42.872;74.622;2023-10-09T05:23:06;27.48;;;9.35;;
52798;SDS011;38667;42.872;74.622;2023-10-09T05:25:32;30.88;;;13.48;;
52798;SDS011;38667;42.872;74.622;2023-10-09T05:27:59;28.25;;;10.07;;
52798;SDS011;38667;42.872;74.622;2023-10-09T05:30:25;26.83;;;9.63;;
52798;SDS011;38667;42.872;74.622;2023-10-09T05:32:54;26.17;;;8.48;;
52798;SDS011;38667;42.872;74.622;2023-10-09T05:35:21;25.95;;;8.43;;
52798;SDS011;38667;42.872;74.622;2023-10-09T05:37:47;30.02;;;9.57;;
52798;SDS011;38667;42.872;74.622;2023-10-09T05:40:14;23.40;;;9.32;;
52798;SDS011;38667;42.872;74.622;2023-10-09T05:42:40;27.67;;;8.27;;
52798;SDS011;38667;42.872;74.622;2023-10-09T05:45:07;28.63;;;9.45;;
52798;SDS011;38667;42.872;74.622;2023-10-09T05:47:35;19.80;;;8.15;;
52798;SDS011;38667;42.872;74.622;2023-10-09T05:50:03;36.05;;;9.25;;
52798;SDS011;38667;42.872;74.622;2023-10-09T05:52:30;23.25;;;8.07;;
52798;SDS011;38667;42.872;74.622;2023-10-09T05:54:56;31.83;;;8.18;;
52798;SDS011;38667;42.872;74.622;2023-10-09T05:57:22;28.50;;;8.98;;
52798;SDS011;38667;42.872;74.622;2023-10-09T05:59:49;23.05;;;7.78;;
52798;SDS011;38667;42.872;74.622;2023-10-09T06:02:15;24.48;;;7.95;;
52798;SDS011;38667;42.872;74.622;2023-10-09T06:04:41;24.95;;;8.00;;
52798;SDS011;38667;42.872;74.622;2023-10-09T06:07:09;30.52;;;9.32;;
52798;SDS011;38667;42.872;74.622;2023-10-09T06:09:36;25.13;;;8.35;;
52798;SDS011;38667;42.872;74.622;2023-10-09T06:12:02;29.02;;;8.13;;
52798;SDS011;38667;42.872;74.622;2023-10-09T06:14:29;29.73;;;9.10;;
52798;SDS011;38667;42.872;74.622;2023-10-09T06:16:55;24.52;;;8.57;;
52798;SDS011;38667;42.872;74.622;2023-10-09T06:19:22;30.65;;;8.38;;
52798;SDS011;38667;42.872;74.622;2023-10-09T06:21:49;25.73;;;8.18;;
52798;SDS011;38667;42.872;74.622;2023-10-09T06:24:17;24.05;;;7.63;;
52798;SDS011;38667;42.872;74.622;2023-10-09T06:26:44;25.33;;;7.95;;
52798;SDS011;38667;42.872;74.622;2023-10-09T06:29:11;22.08;;;7.50;;
52798;SDS011;38667;42.872;74.622;2023-10-09T06:31:37;27.52;;;7.75;;
52798;SDS011;38667;42.872;74.622;2023-10-09T06:34:03;23.13;;;6.95;;
52798;SDS011;38667;42.872;74.622;2023-10-09T06:36:30;23.15;;;8.00;;
52798;SDS011;38667;42.872;74.622;2023-10-09T06:38:56;28.13;;;7.97;;
52798;SDS011;38667;42.872;74.622;2023-10-09T06:41:24;26.77;;;7.88;;
52798;SDS011;38667;42.872;74.622;2023-10-09T06:43:50;20.90;;;6.32;;
52798;SDS011;38667;42.872;74.622;2023-10-09T06:46:16;22.88;;;7.13;;
52798;SDS011;38667;42.872;74.622;2023-10-09T06:48:43;21.92;;;6.57;;
52798;SDS011;38667;42.872;74.622;2023-10-09T06:51:10;21.60;;;6.85;;
52798;SDS011;38667;42.872;74.622;2023-10-09T06:53:37;24.70;;;7.25;;
52798;SDS011;38667;42.872;74.622;2023-10-09T06:56:03;17.90;;;6.57;;
52798;SDS011;38667;42.872;74.622;2023-10-09T06:58:31;17.38;;;6.38;;
52798;SDS011;38667;42.872;74.622;2023-10-09T07:00:57;24.13;;;6.90;;
52798;SDS011;38667;42.872;74.622;2023-10-09T07:03:24;22.60;;;7.30;;
52798;SDS011;38667;42.872;74.622;2023-10-09T07:05:50;31.65;;;7.45;;
52798;SDS011;38667;42.872;74.622;2023-10-09T07:08:16;26.98;;;7.65;;
52798;SDS011;38667;42.872;74.622;2023-10-09T07:10:43;24.00;;;8.57;;
52798;SDS011;38667;42.872;74.622;2023-10-09T07:13:09;24.17;;;6.72;;
52798;SDS011;38667;42.872;74.622;2023-10-09T07:15:37;22.77;;;6.88;;
52798;SDS011;38667;42.872;74.622;2023-10-09T07:18:08;27.38;;;6.80;;
52798;SDS011;38667;42.872;74.622;2023-10-09T07:20:34;25.25;;;7.15;;
52798;SDS011;38667;42.872;74.622;2023-10-09T07:23:00;28.30;;;8.10;;
52798;SDS011;38667;42.872;74.622;2023-10-09T07:25:27;24.85;;;6.93;;
52798;SDS011;38667;42.872;74.622;2023-10-09T07:27:53;32.50;;;7.20;;
52798;SDS011;38667;42.872;74.622;2023-10-09T07:30:19;24.15;;;6.95;;
52798;SDS011;38667;42.872;74.622;2023-10-09T07:32:48;16.73;;;6.45;;
52798;SDS011;38667;42.872;74.622;2023-10-09T07:35:14;23.67;;;6.78;;
52798;SDS011;38667;42.872;74.622;2023-10-09T07:37:41;20.65;;;6.35;;
52798;SDS011;38667;42.872;74.622;2023-10-09T07:40:07;17.67;;;6.38;;
52798;SDS011;38667;42.872;74.622;2023-10-09T07:42:35;25.40;;;7.07;;
52798;SDS011;38667;42.872;74.622;2023-10-09T07:45:01;29.33;;;6.88;;
52798;SDS011;38667;42.872;74.622;2023-10-09T07:47:27;23.00;;;6.72;;
52798;SDS011;38667;42.872;74.622;2023-10-09T07:49:55;23.98;;;7.38;;
52798;SDS011;38667;42.872;74.622;2023-10-09T07:52:22;26.42;;;6.70;;
52798;SDS011;38667;42.872;74.622;2023-10-09T07:54:49;21.77;;;6.18;;
52798;SDS011;38667;42.872;74.622;2023-10-09T07:57:16;24.15;;;6.82;;
52798;SDS011;38667;42.872;74.622;2023-10-09T07:59:42;26.05;;;6.80;;
52798;SDS011;38667;42.872;74.622;2023-10-09T08:02:09;23.23;;;7.00;;
52798;SDS011;38667;42.872;74.622;2023-10-09T08:04:35;27.60;;;7.00;;
52798;SDS011;38667;42.872;74.622;2023-10-09T08:07:03;29.60;;;7.10;;
52798;SDS011;38667;42.872;74.622;2023-10-09T08:09:29;26.33;;;8.05;;
52798;SDS011;38667;42.872;74.622;2023-10-09T08:11:55;23.30;;;7.10;;
52798;SDS011;38667;42.872;74.622;2023-10-09T08:14:22;23.83;;;9.25;;
52798;SDS011;38667;42.872;74.622;2023-10-09T08:16:50;23.23;;;7.60;;
52798;SDS011;38667;42.872;74.622;2023-10-09T08:19:16;20.60;;;6.35;;
52798;SDS011;38667;42.872;74.622;2023-10-09T08:21:42;21.88;;;6.30;;
52798;SDS011;38667;42.872;74.622;2023-10-09T08:24:10;23.48;;;6.68;;
52798;SDS011;38667;42.872;74.622;2023-10-09T08:26:37;22.50;;;5.47;;
52798;SDS011;38667;42.872;74.622;2023-10-09T08:29:03;23.48;;;7.00;;
52798;SDS011;38667;42.872;74.622;2023-10-09T08:31:29;21.20;;;6.55;;
52798;SDS011;38667;42.872;74.622;2023-10-09T08:33:55;25.25;;;6.45;;
52798;SDS011;38667;42.872;74.622;2023-10-09T08:36:22;25.73;;;6.38;;
52798;SDS011;38667;42.872;74.622;2023-10-09T08:38:48;21.02;;;5.75;;
52798;SDS011;38667;42.872;74.622;2023-10-09T08:41:16;18.08;;;5.75;;
52798;SDS011;38667;42.872;74.622;2023-10-09T08:43:46;19.05;;;6.70;;
52798;SDS011;38667;42.872;74.622;2023-10-09T08:46:13;24.25;;;6.40;;
52798;SDS011;38667;42.872;74.622;2023-10-09T08:48:40;21.13;;;6.15;;
52798;SDS011;38667;42.872;74.622;2023-10-09T08:51:07;21.25;;;6.95;;
52798;SDS011;38667;42.872;74.622;2023-10-09T08:53:33;20.33;;;5.95;;
52798;SDS011;38667;42.872;74.622;2023-10-09T08:56:00;16.35;;;6.47;;
52798;SDS011;38667;42.872;74.622;2023-10-09T08:58:27;17.88;;;6.63;;
52798;SDS011;38667;42.872;74.622;2023-10-09T09:00:54;21.65;;;7.20;;
52798;SDS011;38667;42.872;74.622;2023-10-09T09:03:20;24.33;;;6.18;;
52798;SDS011;38667;42.872;74.622;2023-10-09T09:05:48;11.02;;;5.47;;
52798;SDS011;38667;42.872;74.622;2023-10-09T09:08:22;21.42;;;6.70;;
52798;SDS011;38667;42.872;74.622;2023-10-09T09:10:50;21.33;;;6.93;;
52798;SDS011;38667;42.872;74.622;2023-10-09T09:13:21;20.00;;;6.28;;
52798;SDS011;38667;42.872;74.622;2023-10-09T09:15:49;28.80;;;6.82;;
52798;SDS011;38667;42.872;74.622;2023-10-09T09:18:15;22.27;;;6.55;;
52798;SDS011;38667;42.872;74.622;2023-10-09T09:20:42;20.70;;;6.22;;
52798;SDS011;38667;42.872;74.622;2023-10-09T09:23:09;15.57;;;6.45;;
52798;SDS011;38667;42.872;74.622;2023-10-09T09:25:39;18.17;;;5.57;;
52798;SDS011;38667;42.872;74.622;2023-10-09T09:28:06;20.30;;;5.30;;
52798;SDS011;38667;42.872;74.622;2023-10-09T09:30:33;20.20;;;5.72;;
52798;SDS011;38667;42.872;74.622;2023-10-09T09:33:02;23.15;;;5.82;;
52798;SDS011;38667;42.872;74.622;2023-10-09T09:35:55;18.33;;;5.55;;
52798;SDS011;38667;42.872;74.622;2023-10-09T09:38:22;21.55;;;5.13;;
52798;SDS011;38667;42.872;74.622;2023-10-09T09:40:49;22.33;;;4.88;;
52798;SDS011;38667;42.872;74.622;2023-10-09T09:43:15;16.63;;;6.07;;
52798;SDS011;38667;42.872;74.622;2023-10-09T09:45:42;20.70;;;5.53;;
52798;SDS011;38667;42.872;74.622;2023-10-09T09:48:10;20.38;;;5.00;;
52798;SDS011;38667;42.872;74.622;2023-10-09T09:50:37;17.48;;;5.20;;
52798;SDS011;38667;42.872;74.622;2023-10-09T09:53:03;15.30;;;5.32;;
52798;SDS011;38667;42.872;74.622;2023-10-09T09:55:31;15.20;;;4.90;;
52798;SDS011;38667;42.872;74.622;2023-10-09T09:57:59;13.18;;;5.15;;
52798;SDS011;38667;42.872;74.622;2023-10-09T10:00:28;23.70;;;5.30;;
52798;SDS011;38667;42.872;74.622;2023-10-09T10:02:57;17.20;;;5.13;;
52798;SDS011;38667;42.872;74.622;2023-10-09T10:05:30;15.98;;;4.65;;
52798;SDS011;38667;42.872;74.622;2023-10-09T10:07:59;19.08;;;4.45;;
52798;SDS011;38667;42.872;74.622;2023-10-09T10:10:35;15.98;;;4.72;;
52798;SDS011;38667;42.872;74.622;2023-10-09T10:13:03;16.15;;;4.50;;
52798;SDS011;38667;42.872;74.622;2023-10-09T10:18:23;18.35;;;5.95;;
52798;SDS011;38667;42.872;74.622;2023-10-09T10:23:41;14.35;;;5.10;;
52798;SDS011;38667;42.872;74.622;2023-10-09T10:26:17;22.80;;;5.03;;
52798;SDS011;38667;42.872;74.622;2023-10-09T10:28:44;16.73;;;5.32;;
52798;SDS011;38667;42.872;74.622;2023-10-09T10:31:53;17.17;;;5.03;;
52798;SDS011;38667;42.872;74.622;2023-10-09T10:34:20;14.25;;;5.53;;
52798;SDS011;38667;42.872;74.622;2023-10-09T10:36:48;23.60;;;5.13;;
52798;SDS011;38667;42.872;74.622;2023-10-09T10:39:15;10.02;;;4.28;;
52798;SDS011;38667;42.872;74.622;2023-10-09T10:41:42;14.23;;;4.50;;
52798;SDS011;38667;42.872;74.622;2023-10-09T10:44:25;16.25;;;4.75;;
52798;SDS011;38667;42.872;74.622;2023-10-09T10:46:52;15.18;;;5.18;;
52798;SDS011;38667;42.872;74.622;2023-10-09T10:49:19;26.70;;;4.90;;
52798;SDS011;38667;42.872;74.622;2023-10-09T10:51:46;17.17;;;5.53;;
52798;SDS011;38667;42.872;74.622;2023-10-09T10:54:20;16.05;;;5.28;;
52798;SDS011;38667;42.872;74.622;2023-10-09T10:56:48;14.43;;;4.47;;
52798;SDS011;38667;42.872;74.622;2023-10-09T10:59:14;14.80;;;5.00;;
52798;SDS011;38667;42.872;74.622;2023-10-09T11:01:40;23.77;;;5.50;;
52798;SDS011;38667;42.872;74.622;2023-10-09T11:04:10;17.42;;;5.40;;
52798;SDS011;38667;42.872;74.622;2023-10-09T11:06:37;13.80;;;4.63;;
52798;SDS011;38667;42.872;74.622;2023-10-09T11:09:06;19.17;;;5.65;;
52798;SDS011;38667;42.872;74.622;2023-10-09T11:11:33;19.20;;;5.18;;
52798;SDS011;38667;42.872;74.622;2023-10-09T11:14:07;15.18;;;4.88;;
52798;SDS011;38667;42.872;74.622;2023-10-09T11:16:35;13.68;;;5.35;;
52798;SDS011;38667;42.872;74.622;2023-10-09T11:19:03;18.88;;;4.68;;
52798;SDS011;38667;42.872;74.622;2023-10-09T11:21:29;20.40;;;5.15;;
52798;SDS011;38667;42.872;74.622;2023-10-09T11:23:55;21.17;;;5.57;;
52798;SDS011;38667;42.872;74.622;2023-10-09T11:26:27;19.08;;;4.93;;
52798;SDS011;38667;42.872;74.622;2023-10-09T11:29:06;13.25;;;5.22;;
52798;SDS011;38667;42.872;74.622;2023-10-09T11:31:33;16.40;;;5.38;;
52798;SDS011;38667;42.872;74.622;2023-10-09T11:33:59;16.05;;;4.63;;
52798;SDS011;38667;42.872;74.622;2023-10-09T11:36:26;18.88;;;4.78;;
52798;SDS011;38667;42.872;74.622;2023-10-09T11:38:52;20.88;;;5.55;;
52798;SDS011;38667;42.872;74.622;2023-10-09T11:41:19;14.80;;;5.53;;
52798;SDS011;38667;42.872;74.622;2023-10-09T11:43:50;22.92;;;6.03;;
52798;SDS011;38667;42.872;74.622;2023-10-09T11:46:17;21.08;;;5.80;;
52798;SDS011;38667;42.872;74.622;2023-10-09T11:48:43;14.55;;;5.03;;
52798;SDS011;38667;42.872;74.622;2023-10-09T11:51:11;20.27;;;5.95;;
52798;SDS011;38667;42.872;74.622;2023-10-09T11:53:39;17.25;;;5.25;;
52798;SDS011;38667;42.872;74.622;2023-10-09T11:56:06;18.40;;;5.38;;
52798;SDS011;38667;42.872;74.622;2023-10-09T11:58:32;12.55;;;4.70;;
52798;SDS011;38667;42.872;74.622;2023-10-09T12:01:09;18.27;;;5.22;;
52798;SDS011;38667;42.872;74.622;2023-10-09T12:03:37;16.65;;;5.18;;
52798;SDS011;38667;42.872;74.622;2023-10-09T12:06:03;12.30;;;4.70;;
52798;SDS011;38667;42.872;74.622;2023-10-09T12:08:30;26.83;;;7.07;;
52798;SDS011;38667;42.872;74.622;2023-10-09T12:10:56;13.32;;;4.97;;
52798;SDS011;38667;42.872;74.622;2023-10-09T12:13:24;18.80;;;5.90;;
52798;SDS011;38667;42.872;74.622;2023-10-09T12:15:50;15.55;;;5.32;;
52798;SDS011;38667;42.872;74.622;2023-10-09T12:18:19;24.35;;;5.85;;
52798;SDS011;38667;42.872;74.622;2023-10-09T12:20:46;19.40;;;6.07;;
52798;SDS011;38667;42.872;74.622;2023-10-09T12:23:12;16.83;;;5.80;;
52798;SDS011;38667;42.872;74.622;2023-10-09T12:25:39;22.27;;;6.25;;
52798;SDS011;38667;42.872;74.622;2023-10-09T12:28:05;21.50;;;6.20;;
52798;SDS011;38667;42.872;74.622;2023-10-09T12:30:31;15.32;;;5.65;;
52798;SDS011;38667;42.872;74.622;2023-10-09T12:32:59;21.17;;;6.35;;
52798;SDS011;38667;42.872;74.622;2023-10-09T12:35:27;23.33;;;6.93;;
52798;SDS011;38667;42.872;74.622;2023-10-09T12:37:53;19.73;;;6.88;;
52798;SDS011;38667;42.872;74.622;2023-10-09T12:40:20;19.63;;;7.10;;
52798;SDS011;38667;42.872;74.622;2023-10-09T12:42:47;20.13;;;6.78;;
52798;SDS011;38667;42.872;74.622;2023-10-09T12:45:13;24.23;;;8.73;;
52798;SDS011;38667;42.872;74.622;2023-10-09T12:47:40;28.05;;;7.68;;
52798;SDS011;38667;42.872;74.622;2023-10-09T12:50:06;29.08;;;8.07;;
52798;SDS011;38667;42.872;74.622;2023-10-09T12:52:34;23.95;;;8.75;;
52798;SDS011;38667;42.872;74.622;2023-10-09T12:55:00;25.23;;;8.25;;
52798;SDS011;38667;42.872;74.622;2023-10-09T12:57:27;27.20;;;9.45;;
52798;SDS011;38667;42.872;74.622;2023-10-09T12:59:53;33.88;;;9.60;;
52798;SDS011;38667;42.872;74.622;2023-10-09T13:02:19;22.08;;;8.85;;
52798;SDS011;38667;42.872;74.622;2023-10-09T13:04:46;31.33;;;10.73;;
52798;SDS011;38667;42.872;74.622;2023-10-09T13:07:12;28.90;;;10.45;;
52798;SDS011;38667;42.872;74.622;2023-10-09T13:09:40;34.83;;;11.30;;
52798;SDS011;38667;42.872;74.622;2023-10-09T13:12:06;28.77;;;10.55;;
52798;SDS011;38667;42.872;74.622;2023-10-09T13:14:32;28.52;;;9.98;;
52798;SDS011;38667;42.872;74.622;2023-10-09T13:16:59;26.45;;;9.88;;
52798;SDS011;38667;42.872;74.622;2023-10-09T13:19:25;34.95;;;12.55;;
52798;SDS011;38667;42.872;74.622;2023-10-09T13:21:51;44.55;;;14.98;;
52798;SDS011;38667;42.872;74.622;2023-10-09T13:24:18;39.95;;;13.50;;
52798;SDS011;38667;42.872;74.622;2023-10-09T13:26:45;44.85;;;15.18;;
52798;SDS011;38667;42.872;74.622;2023-10-09T13:29:12;42.35;;;17.10;;
52798;SDS011;38667;42.872;74.622;2023-10-09T13:31:39;45.53;;;15.25;;
52798;SDS011;38667;42.872;74.622;2023-10-09T13:34:06;47.03;;;16.08;;
52798;SDS011;38667;42.872;74.622;2023-10-09T13:36:32;38.35;;;17.58;;
52798;SDS011;38667;42.872;74.622;2023-10-09T13:38:59;52.40;;;19.92;;
52798;SDS011;38667;42.872;74.622;2023-10-09T13:41:26;55.78;;;22.05;;
52798;SDS011;38667;42.872;74.622;2023-10-09T13:43:53;57.60;;;27.98;;
52798;SDS011;38667;42.872;74.622;2023-10-09T13:46:20;59.13;;;26.05;;
52798;SDS011;38667;42.872;74.622;2023-10-09T13:48:46;71.43;;;28.08;;
52798;SDS011;38667;42.872;74.622;2023-10-09T13:51:13;59.85;;;22.35;;
52798;SDS011;38667;42.872;74.622;2023-10-09T13:53:40;50.83;;;21.60;;
52798;SDS011;38667;42.872;74.622;2023-10-09T13:56:10;41.67;;;19.13;;
52798;SDS011;38667;42.872;74.622;2023-10-09T13:58:36;51.20;;;18.15;;
52798;SDS011;38667;42.872;74.622;2023-10-09T14:01:04;46.28;;;18.80;;
52798;SDS011;38667;42.872;74.622;2023-10-09T14:03:30;55.75;;;20.27;;
52798;SDS011;38667;42.872;74.622;2023-10-09T14:05:57;60.70;;;23.77;;
52798;SDS011;38667;42.872;74.622;2023-10-09T14:08:23;58.00;;;22.80;;
52798;SDS011;38667;42.872;74.622;2023-10-09T14:10:49;56.22;;;21.02;;
52798;SDS011;38667;42.872;74.622;2023-10-09T14:13:16;80.50;;;29.08;;
52798;SDS011;38667;42.872;74.622;2023-10-09T14:15:42;97.05;;;39.88;;
52798;SDS011;38667;42.872;74.622;2023-10-09T14:18:10;113.07;;;44.42;;
52798;SDS011;38667;42.872;74.622;2023-10-09T14:20:36;139.75;;;54.15;;
52798;SDS011;38667;42.872;74.622;2023-10-09T14:23:03;123.90;;;51.05;;
52798;SDS011;38667;42.872;74.622;2023-10-09T14:25:29;116.28;;;44.92;;
52798;SDS011;38667;42.872;74.622;2023-10-09T14:27:55;102.63;;;42.47;;